sensor_id;sensor_type;location;lat;lon;timestamp;P1;durP1;ratioP1;P2;durP2;ratioP2
13309;SDS011;6723;48.256;16.402;2023-03-23T00:01:02;8.60;;;6.90;;
13309;SDS011;6723;48.256;16.402;2023-03-23T00:03:30;8.80;;;7.33;;
13309;SDS011;6723;48.256;16.402;2023-03-23T00:05:59;10.03;;;7.57;;
13309;SDS011;6723;48.256;16.402;2023-03-23T00:08:32;11.37;;;7.87;;
13309;SDS011;6723;48.256;16.402;2023-03-23T00:11:15;12.30;;;7.43;;
13309;SDS011;6723;48.256;16.402;2023-03-23T00:13:46;11.90;;;7.77;;
13309;SDS011;6723;48.256;16.402;2023-03-23T00:16:16;8.83;;;7.03;;
13309;SDS011;6723;48.256;16.402;2023-03-23T00:18:56;9.80;;;7.80;;
13309;SDS011;6723;48.256;16.402;2023-03-23T00:21:25;16.63;;;8.53;;
13309;SDS011;6723;48.256;16.402;2023-03-23T00:24:10;9.00;;;8.03;;
13309;SDS011;6723;48.256;16.402;2023-03-23T00:26:36;9.00;;;7.50;;
13309;SDS011;6723;48.256;16.402;2023-03-23T00:29:12;8.80;;;7.37;;
13309;SDS011;6723;48.256;16.402;2023-03-23T00:31:44;10.00;;;7.60;;
13309;SDS011;6723;48.256;16.402;2023-03-23T00:34:22;8.10;;;6.90;;
13309;SDS011;6723;48.256;16.402;2023-03-23T00:36:50;11.50;;;8.13;;
13309;SDS011;6723;48.256;16.402;2023-03-23T00:39:24;10.17;;;8.60;;
13309;SDS011;6723;48.256;16.402;2023-03-23T00:41:52;11.80;;;8.63;;
13309;SDS011;6723;48.256;16.402;2023-03-23T00:44:29;15.00;;;8.37;;
13309;SDS011;6723;48.256;16.402;2023-03-23T00:46:56;10.57;;;8.57;;
13309;SDS011;6723;48.256;16.402;2023-03-23T00:49:24;10.47;;;8.27;;
13309;SDS011;6723;48.256;16.402;2023-03-23T00:51:54;10.60;;;8.07;;
13309;SDS011;6723;48.256;16.402;2023-03-23T00:54:22;9.30;;;7.43;;
13309;SDS011;6723;48.256;16.402;2023-03-23T00:56:48;9.93;;;7.07;;
13309;SDS011;6723;48.256;16.402;2023-03-23T00:59:14;7.27;;;6.57;;
13309;SDS011;6723;48.256;16.402;2023-03-23T01:01:41;10.23;;;7.07;;
13309;SDS011;6723;48.256;16.402;2023-03-23T01:04:07;9.20;;;7.43;;
13309;SDS011;6723;48.256;16.402;2023-03-23T01:06:38;8.93;;;7.43;;
13309;SDS011;6723;48.256;16.402;2023-03-23T01:09:14;13.33;;;7.23;;
13309;SDS011;6723;48.256;16.402;2023-03-23T01:11:46;8.57;;;7.67;;
13309;SDS011;6723;48.256;16.402;2023-03-23T01:14:13;8.53;;;7.13;;
13309;SDS011;6723;48.256;16.402;2023-03-23T01:16:40;9.67;;;7.40;;
13309;SDS011;6723;48.256;16.402;2023-03-23T01:19:06;9.07;;;8.10;;
13309;SDS011;6723;48.256;16.402;2023-03-23T01:21:33;8.13;;;7.33;;
13309;SDS011;6723;48.256;16.402;2023-03-23T01:23:58;10.43;;;7.17;;
13309;SDS011;6723;48.256;16.402;2023-03-23T01:26:25;10.17;;;7.87;;
13309;SDS011;6723;48.256;16.402;2023-03-23T01:28:52;9.40;;;7.17;;
13309;SDS011;6723;48.256;16.402;2023-03-23T01:31:19;11.13;;;8.00;;
13309;SDS011;6723;48.256;16.402;2023-03-23T01:33:48;14.00;;;7.77;;
13309;SDS011;6723;48.256;16.402;2023-03-23T01:36:20;10.17;;;7.63;;
13309;SDS011;6723;48.256;16.402;2023-03-23T01:38:49;9.20;;;7.43;;
13309;SDS011;6723;48.256;16.402;2023-03-23T01:41:16;9.97;;;7.90;;
13309;SDS011;6723;48.256;16.402;2023-03-23T01:43:57;10.13;;;7.50;;
13309;SDS011;6723;48.256;16.402;2023-03-23T01:46:27;11.13;;;7.73;;
13309;SDS011;6723;48.256;16.402;2023-03-23T01:48:56;10.67;;;8.13;;
13309;SDS011;6723;48.256;16.402;2023-03-23T01:51:23;11.13;;;8.20;;
13309;SDS011;6723;48.256;16.402;2023-03-23T01:53:53;11.30;;;7.90;;
13309;SDS011;6723;48.256;16.402;2023-03-23T01:56:23;11.70;;;7.83;;
13309;SDS011;6723;48.256;16.402;2023-03-23T01:58:55;11.37;;;8.07;;
13309;SDS011;6723;48.256;16.402;2023-03-23T02:01:21;9.27;;;8.13;;
13309;SDS011;6723;48.256;16.402;2023-03-23T02:03:52;10.57;;;8.57;;
13309;SDS011;6723;48.256;16.402;2023-03-23T02:06:21;9.27;;;7.63;;
13309;SDS011;6723;48.256;16.402;2023-03-23T02:08:48;8.13;;;7.20;;
13309;SDS011;6723;48.256;16.402;2023-03-23T02:11:20;9.27;;;7.83;;
13309;SDS011;6723;48.256;16.402;2023-03-23T02:13:47;10.77;;;8.43;;
13309;SDS011;6723;48.256;16.402;2023-03-23T02:24:51;9.80;;;7.43;;
13309;SDS011;6723;48.256;16.402;2023-03-23T02:35:50;10.17;;;7.63;;
13309;SDS011;6723;48.256;16.402;2023-03-23T02:38:23;9.43;;;7.60;;
13309;SDS011;6723;48.256;16.402;2023-03-23T02:41:01;10.30;;;7.43;;
13309;SDS011;6723;48.256;16.402;2023-03-23T02:43:31;8.50;;;7.57;;
13309;SDS011;6723;48.256;16.402;2023-03-23T02:46:03;11.87;;;7.70;;
13309;SDS011;6723;48.256;16.402;2023-03-23T02:48:32;8.87;;;7.67;;
13309;SDS011;6723;48.256;16.402;2023-03-23T02:50:59;8.93;;;7.40;;
13309;SDS011;6723;48.256;16.402;2023-03-23T02:53:28;9.63;;;7.70;;
13309;SDS011;6723;48.256;16.402;2023-03-23T02:55:55;11.53;;;7.20;;
13309;SDS011;6723;48.256;16.402;2023-03-23T02:58:26;8.90;;;7.37;;
13309;SDS011;6723;48.256;16.402;2023-03-23T03:00:53;9.17;;;7.73;;
13309;SDS011;6723;48.256;16.402;2023-03-23T03:03:30;8.23;;;7.37;;
13309;SDS011;6723;48.256;16.402;2023-03-23T03:08:46;9.67;;;8.20;;
13309;SDS011;6723;48.256;16.402;2023-03-23T03:11:13;9.73;;;8.10;;
13309;SDS011;6723;48.256;16.402;2023-03-23T03:21:31;8.30;;;7.50;;
13309;SDS011;6723;48.256;16.402;2023-03-23T03:24:01;13.17;;;7.60;;
13309;SDS011;6723;48.256;16.402;2023-03-23T03:26:30;11.17;;;8.20;;
13309;SDS011;6723;48.256;16.402;2023-03-23T03:28:59;10.03;;;7.60;;
13309;SDS011;6723;48.256;16.402;2023-03-23T03:31:32;9.87;;;7.93;;
13309;SDS011;6723;48.256;16.402;2023-03-23T03:34:03;11.30;;;8.23;;
13309;SDS011;6723;48.256;16.402;2023-03-23T03:36:31;10.87;;;7.30;;
13309;SDS011;6723;48.256;16.402;2023-03-23T03:39:06;8.90;;;7.87;;
13309;SDS011;6723;48.256;16.402;2023-03-23T03:41:35;11.03;;;8.10;;
13309;SDS011;6723;48.256;16.402;2023-03-23T03:44:05;10.27;;;7.83;;
13309;SDS011;6723;48.256;16.402;2023-03-23T03:46:31;11.90;;;7.70;;
13309;SDS011;6723;48.256;16.402;2023-03-23T03:49:00;9.13;;;7.63;;
13309;SDS011;6723;48.256;16.402;2023-03-23T03:51:32;9.73;;;7.70;;
13309;SDS011;6723;48.256;16.402;2023-03-23T03:53:59;9.20;;;7.70;;
13309;SDS011;6723;48.256;16.402;2023-03-23T03:56:25;9.23;;;8.23;;
13309;SDS011;6723;48.256;16.402;2023-03-23T03:58:51;10.17;;;7.93;;
13309;SDS011;6723;48.256;16.402;2023-03-23T04:01:18;10.27;;;8.83;;
13309;SDS011;6723;48.256;16.402;2023-03-23T04:03:48;8.93;;;8.03;;
13309;SDS011;6723;48.256;16.402;2023-03-23T04:06:14;11.43;;;8.40;;
13309;SDS011;6723;48.256;16.402;2023-03-23T04:08:43;11.13;;;8.50;;
13309;SDS011;6723;48.256;16.402;2023-03-23T04:11:10;10.53;;;8.60;;
13309;SDS011;6723;48.256;16.402;2023-03-23T04:13:39;17.23;;;8.53;;
13309;SDS011;6723;48.256;16.402;2023-03-23T04:16:05;9.50;;;8.50;;
13309;SDS011;6723;48.256;16.402;2023-03-23T04:18:32;13.13;;;8.80;;
13309;SDS011;6723;48.256;16.402;2023-03-23T04:20:59;12.90;;;8.73;;
13309;SDS011;6723;48.256;16.402;2023-03-23T04:23:27;14.13;;;8.87;;
13309;SDS011;6723;48.256;16.402;2023-03-23T04:25:56;10.30;;;9.03;;
13309;SDS011;6723;48.256;16.402;2023-03-23T04:28:26;12.17;;;9.00;;
13309;SDS011;6723;48.256;16.402;2023-03-23T04:30:53;12.67;;;8.53;;
13309;SDS011;6723;48.256;16.402;2023-03-23T04:33:23;11.77;;;9.30;;
13309;SDS011;6723;48.256;16.402;2023-03-23T04:35:52;14.77;;;9.63;;
13309;SDS011;6723;48.256;16.402;2023-03-23T04:38:20;9.67;;;8.63;;
13309;SDS011;6723;48.256;16.402;2023-03-23T04:40:48;11.70;;;9.57;;
13309;SDS011;6723;48.256;16.402;2023-03-23T04:43:19;12.23;;;9.13;;
13309;SDS011;6723;48.256;16.402;2023-03-23T04:45:53;14.33;;;9.80;;
13309;SDS011;6723;48.256;16.402;2023-03-23T04:48:24;11.67;;;9.47;;
13309;SDS011;6723;48.256;16.402;2023-03-23T04:50:52;12.33;;;9.07;;
13309;SDS011;6723;48.256;16.402;2023-03-23T04:53:18;10.57;;;9.47;;
13309;SDS011;6723;48.256;16.402;2023-03-23T04:55:44;12.80;;;9.83;;
13309;SDS011;6723;48.256;16.402;2023-03-23T04:58:12;14.57;;;9.87;;
13309;SDS011;6723;48.256;16.402;2023-03-23T05:00:40;14.60;;;9.53;;
13309;SDS011;6723;48.256;16.402;2023-03-23T05:03:12;10.57;;;9.07;;
13309;SDS011;6723;48.256;16.402;2023-03-23T05:05:41;12.83;;;9.50;;
13309;SDS011;6723;48.256;16.402;2023-03-23T05:08:15;12.43;;;9.80;;
13309;SDS011;6723;48.256;16.402;2023-03-23T05:10:41;15.00;;;9.67;;
13309;SDS011;6723;48.256;16.402;2023-03-23T05:13:07;12.23;;;9.60;;
13309;SDS011;6723;48.256;16.402;2023-03-23T05:15:33;11.97;;;9.60;;
13309;SDS011;6723;48.256;16.402;2023-03-23T05:17:58;12.93;;;9.30;;
13309;SDS011;6723;48.256;16.402;2023-03-23T05:20:24;10.07;;;8.63;;
13309;SDS011;6723;48.256;16.402;2023-03-23T05:22:50;12.53;;;10.17;;
13309;SDS011;6723;48.256;16.402;2023-03-23T05:25:16;11.33;;;9.93;;
13309;SDS011;6723;48.256;16.402;2023-03-23T05:27:47;12.53;;;9.60;;
13309;SDS011;6723;48.256;16.402;2023-03-23T05:30:18;12.87;;;10.23;;
13309;SDS011;6723;48.256;16.402;2023-03-23T05:32:46;11.57;;;9.73;;
13309;SDS011;6723;48.256;16.402;2023-03-23T05:35:16;14.03;;;10.30;;
13309;SDS011;6723;48.256;16.402;2023-03-23T05:37:43;11.57;;;10.03;;
13309;SDS011;6723;48.256;16.402;2023-03-23T05:40:10;12.53;;;10.00;;
13309;SDS011;6723;48.256;16.402;2023-03-23T05:42:38;14.87;;;11.37;;
13309;SDS011;6723;48.256;16.402;2023-03-23T05:45:10;14.83;;;10.83;;
13309;SDS011;6723;48.256;16.402;2023-03-23T05:47:38;14.83;;;10.80;;
13309;SDS011;6723;48.256;16.402;2023-03-23T05:50:06;13.30;;;10.07;;
13309;SDS011;6723;48.256;16.402;2023-03-23T05:52:35;11.47;;;10.27;;
13309;SDS011;6723;48.256;16.402;2023-03-23T05:55:02;16.10;;;10.90;;
13309;SDS011;6723;48.256;16.402;2023-03-23T05:57:29;14.87;;;10.80;;
13309;SDS011;6723;48.256;16.402;2023-03-23T05:59:55;19.23;;;11.07;;
13309;SDS011;6723;48.256;16.402;2023-03-23T06:02:22;16.73;;;11.27;;
13309;SDS011;6723;48.256;16.402;2023-03-23T06:04:49;15.33;;;11.00;;
13309;SDS011;6723;48.256;16.402;2023-03-23T06:07:22;14.57;;;10.53;;
13309;SDS011;6723;48.256;16.402;2023-03-23T06:09:49;13.57;;;10.30;;
13309;SDS011;6723;48.256;16.402;2023-03-23T06:12:18;15.97;;;10.73;;
13309;SDS011;6723;48.256;16.402;2023-03-23T06:14:47;17.90;;;10.53;;
13309;SDS011;6723;48.256;16.402;2023-03-23T06:17:14;14.07;;;11.00;;
13309;SDS011;6723;48.256;16.402;2023-03-23T06:19:42;15.57;;;10.70;;
13309;SDS011;6723;48.256;16.402;2023-03-23T06:22:09;15.53;;;10.73;;
13309;SDS011;6723;48.256;16.402;2023-03-23T06:24:35;15.40;;;11.90;;
13309;SDS011;6723;48.256;16.402;2023-03-23T06:27:01;16.07;;;10.67;;
13309;SDS011;6723;48.256;16.402;2023-03-23T06:29:27;13.73;;;10.50;;
13309;SDS011;6723;48.256;16.402;2023-03-23T06:31:56;12.67;;;10.80;;
13309;SDS011;6723;48.256;16.402;2023-03-23T06:34:24;14.20;;;10.77;;
13309;SDS011;6723;48.256;16.402;2023-03-23T06:36:50;11.40;;;10.03;;
13309;SDS011;6723;48.256;16.402;2023-03-23T06:39:17;13.17;;;10.27;;
13309;SDS011;6723;48.256;16.402;2023-03-23T06:41:43;11.50;;;10.27;;
13309;SDS011;6723;48.256;16.402;2023-03-23T06:44:09;12.70;;;10.13;;
13309;SDS011;6723;48.256;16.402;2023-03-23T06:46:38;15.27;;;10.13;;
13309;SDS011;6723;48.256;16.402;2023-03-23T06:49:06;17.90;;;10.60;;
13309;SDS011;6723;48.256;16.402;2023-03-23T06:51:33;12.90;;;10.40;;
13309;SDS011;6723;48.256;16.402;2023-03-23T06:54:00;18.93;;;9.70;;
13309;SDS011;6723;48.256;16.402;2023-03-23T06:56:26;13.87;;;9.47;;
13309;SDS011;6723;48.256;16.402;2023-03-23T06:58:55;11.10;;;8.50;;
13309;SDS011;6723;48.256;16.402;2023-03-23T07:01:21;10.23;;;9.00;;
13309;SDS011;6723;48.256;16.402;2023-03-23T07:03:47;10.10;;;8.63;;
13309;SDS011;6723;48.256;16.402;2023-03-23T07:06:14;13.07;;;9.03;;
13309;SDS011;6723;48.256;16.402;2023-03-23T07:08:41;13.03;;;8.47;;
13309;SDS011;6723;48.256;16.402;2023-03-23T07:11:07;11.40;;;8.93;;
13309;SDS011;6723;48.256;16.402;2023-03-23T07:13:35;11.03;;;8.10;;
13309;SDS011;6723;48.256;16.402;2023-03-23T07:16:03;10.90;;;8.77;;
13309;SDS011;6723;48.256;16.402;2023-03-23T07:18:31;11.73;;;9.20;;
13309;SDS011;6723;48.256;16.402;2023-03-23T07:20:56;10.57;;;8.53;;
13309;SDS011;6723;48.256;16.402;2023-03-23T07:23:22;11.00;;;8.37;;
13309;SDS011;6723;48.256;16.402;2023-03-23T07:25:48;12.10;;;8.47;;
13309;SDS011;6723;48.256;16.402;2023-03-23T07:28:14;11.87;;;8.83;;
13309;SDS011;6723;48.256;16.402;2023-03-23T07:30:40;15.70;;;8.27;;
13309;SDS011;6723;48.256;16.402;2023-03-23T07:33:07;14.83;;;8.87;;
13309;SDS011;6723;48.256;16.402;2023-03-23T07:35:33;12.27;;;8.00;;
13309;SDS011;6723;48.256;16.402;2023-03-23T07:38:00;13.03;;;8.60;;
13309;SDS011;6723;48.256;16.402;2023-03-23T07:40:27;12.17;;;7.63;;
13309;SDS011;6723;48.256;16.402;2023-03-23T07:42:54;12.97;;;8.40;;
13309;SDS011;6723;48.256;16.402;2023-03-23T07:45:22;10.43;;;8.07;;
13309;SDS011;6723;48.256;16.402;2023-03-23T07:47:48;12.33;;;8.30;;
13309;SDS011;6723;48.256;16.402;2023-03-23T07:50:15;12.87;;;8.40;;
13309;SDS011;6723;48.256;16.402;2023-03-23T07:52:41;12.90;;;8.70;;
13309;SDS011;6723;48.256;16.402;2023-03-23T07:55:08;14.47;;;8.57;;
13309;SDS011;6723;48.256;16.402;2023-03-23T07:57:46;14.13;;;8.43;;
13309;SDS011;6723;48.256;16.402;2023-03-23T08:00:14;14.97;;;8.70;;
13309;SDS011;6723;48.256;16.402;2023-03-23T08:02:44;11.47;;;8.57;;
13309;SDS011;6723;48.256;16.402;2023-03-23T08:05:10;12.30;;;8.47;;
13309;SDS011;6723;48.256;16.402;2023-03-23T08:07:38;13.87;;;9.00;;
13309;SDS011;6723;48.256;16.402;2023-03-23T08:10:06;9.47;;;8.40;;
13309;SDS011;6723;48.256;16.402;2023-03-23T08:12:36;11.87;;;8.57;;
13309;SDS011;6723;48.256;16.402;2023-03-23T08:15:03;12.60;;;8.93;;
13309;SDS011;6723;48.256;16.402;2023-03-23T08:17:31;10.17;;;8.60;;
13309;SDS011;6723;48.256;16.402;2023-03-23T08:19:59;11.60;;;9.03;;
13309;SDS011;6723;48.256;16.402;2023-03-23T08:22:25;11.27;;;9.13;;
13309;SDS011;6723;48.256;16.402;2023-03-23T08:24:54;14.37;;;9.17;;
13309;SDS011;6723;48.256;16.402;2023-03-23T08:27:20;12.67;;;9.27;;
13309;SDS011;6723;48.256;16.402;2023-03-23T08:29:46;12.63;;;10.10;;
13309;SDS011;6723;48.256;16.402;2023-03-23T08:32:13;14.17;;;9.30;;
13309;SDS011;6723;48.256;16.402;2023-03-23T08:34:41;17.40;;;10.70;;
13309;SDS011;6723;48.256;16.402;2023-03-23T08:37:08;15.43;;;9.53;;
13309;SDS011;6723;48.256;16.402;2023-03-23T08:39:34;14.80;;;9.60;;
13309;SDS011;6723;48.256;16.402;2023-03-23T08:42:00;11.40;;;9.67;;
13309;SDS011;6723;48.256;16.402;2023-03-23T08:44:29;15.40;;;10.50;;
13309;SDS011;6723;48.256;16.402;2023-03-23T08:46:54;13.87;;;9.67;;
13309;SDS011;6723;48.256;16.402;2023-03-23T08:49:21;16.63;;;11.03;;
13309;SDS011;6723;48.256;16.402;2023-03-23T08:51:48;13.10;;;10.87;;
13309;SDS011;6723;48.256;16.402;2023-03-23T08:54:14;15.47;;;11.13;;
13309;SDS011;6723;48.256;16.402;2023-03-23T08:56:40;18.57;;;11.40;;
13309;SDS011;6723;48.256;16.402;2023-03-23T08:59:09;15.67;;;10.90;;
13309;SDS011;6723;48.256;16.402;2023-03-23T09:01:35;12.57;;;11.23;;
13309;SDS011;6723;48.256;16.402;2023-03-23T09:04:01;14.47;;;11.20;;
13309;SDS011;6723;48.256;16.402;2023-03-23T09:06:28;21.43;;;12.10;;
13309;SDS011;6723;48.256;16.402;2023-03-23T09:08:54;15.17;;;11.63;;
13309;SDS011;6723;48.256;16.402;2023-03-23T09:11:24;15.33;;;12.50;;
13309;SDS011;6723;48.256;16.402;2023-03-23T09:13:50;15.87;;;11.87;;
13309;SDS011;6723;48.256;16.402;2023-03-23T09:16:28;21.03;;;12.60;;
13309;SDS011;6723;48.256;16.402;2023-03-23T09:18:54;14.03;;;12.50;;
13309;SDS011;6723;48.256;16.402;2023-03-23T09:21:22;15.27;;;12.70;;
13309;SDS011;6723;48.256;16.402;2023-03-23T09:23:48;17.93;;;13.13;;
13309;SDS011;6723;48.256;16.402;2023-03-23T09:26:14;16.60;;;13.37;;
13309;SDS011;6723;48.256;16.402;2023-03-23T09:28:40;14.40;;;12.50;;
13309;SDS011;6723;48.256;16.402;2023-03-23T09:31:06;15.60;;;12.03;;
13309;SDS011;6723;48.256;16.402;2023-03-23T09:33:32;15.60;;;12.67;;
13309;SDS011;6723;48.256;16.402;2023-03-23T09:35:58;17.30;;;12.47;;
13309;SDS011;6723;48.256;16.402;2023-03-23T09:38:24;14.57;;;12.67;;
13309;SDS011;6723;48.256;16.402;2023-03-23T09:48:52;14.27;;;12.13;;
13309;SDS011;6723;48.256;16.402;2023-03-23T09:54:11;13.90;;;11.73;;
13309;SDS011;6723;48.256;16.402;2023-03-23T09:56:59;14.23;;;11.90;;
13309;SDS011;6723;48.256;16.402;2023-03-23T10:01:54;14.00;;;12.50;;
13309;SDS011;6723;48.256;16.402;2023-03-23T10:04:26;13.80;;;12.50;;
13309;SDS011;6723;48.256;16.402;2023-03-23T10:07:13;13.63;;;12.23;;
13309;SDS011;6723;48.256;16.402;2023-03-23T10:09:42;14.70;;;11.67;;
13309;SDS011;6723;48.256;16.402;2023-03-23T10:12:14;13.80;;;10.90;;
13309;SDS011;6723;48.256;16.402;2023-03-23T10:17:38;18.70;;;11.37;;
13309;SDS011;6723;48.256;16.402;2023-03-23T10:23:12;13.27;;;11.87;;
13309;SDS011;6723;48.256;16.402;2023-03-23T10:28:16;19.30;;;11.27;;
13309;SDS011;6723;48.256;16.402;2023-03-23T10:30:49;18.40;;;11.57;;
13309;SDS011;6723;48.256;16.402;2023-03-23T10:33:29;14.17;;;11.10;;
13309;SDS011;6723;48.256;16.402;2023-03-23T10:41:39;15.83;;;10.73;;
13309;SDS011;6723;48.256;16.402;2023-03-23T10:44:14;14.03;;;10.90;;
13309;SDS011;6723;48.256;16.402;2023-03-23T10:47:04;12.87;;;11.00;;
13309;SDS011;6723;48.256;16.402;2023-03-23T10:49:39;13.00;;;11.70;;
13309;SDS011;6723;48.256;16.402;2023-03-23T10:55:02;13.33;;;10.53;;
13309;SDS011;6723;48.256;16.402;2023-03-23T11:00:42;11.93;;;9.97;;
13309;SDS011;6723;48.256;16.402;2023-03-23T11:05:42;13.27;;;9.97;;
13309;SDS011;6723;48.256;16.402;2023-03-23T11:08:16;12.20;;;9.77;;
13309;SDS011;6723;48.256;16.402;2023-03-23T11:10:52;10.10;;;9.00;;
13309;SDS011;6723;48.256;16.402;2023-03-23T11:13:20;10.73;;;8.67;;
13309;SDS011;6723;48.256;16.402;2023-03-23T11:15:50;16.17;;;9.63;;
13309;SDS011;6723;48.256;16.402;2023-03-23T11:18:20;10.80;;;9.70;;
13309;SDS011;6723;48.256;16.402;2023-03-23T11:20:48;10.13;;;9.10;;
13309;SDS011;6723;48.256;16.402;2023-03-23T11:23:24;9.67;;;8.67;;
13309;SDS011;6723;48.256;16.402;2023-03-23T11:28:21;11.43;;;8.77;;
13309;SDS011;6723;48.256;16.402;2023-03-23T11:30:53;12.53;;;10.07;;
13309;SDS011;6723;48.256;16.402;2023-03-23T11:33:20;12.90;;;9.67;;
13309;SDS011;6723;48.256;16.402;2023-03-23T11:35:45;15.33;;;9.83;;
13309;SDS011;6723;48.256;16.402;2023-03-23T11:38:17;8.73;;;7.80;;
13309;SDS011;6723;48.256;16.402;2023-03-23T11:40:49;10.23;;;8.73;;
13309;SDS011;6723;48.256;16.402;2023-03-23T11:43:20;10.60;;;8.90;;
13309;SDS011;6723;48.256;16.402;2023-03-23T11:46:04;9.50;;;8.10;;
13309;SDS011;6723;48.256;16.402;2023-03-23T11:48:40;9.63;;;8.60;;
13309;SDS011;6723;48.256;16.402;2023-03-23T11:52:32;8.90;;;7.63;;
13309;SDS011;6723;48.256;16.402;2023-03-23T11:54:32;12.93;;;7.93;;
13309;SDS011;6723;48.256;16.402;2023-03-23T11:57:06;11.00;;;7.70;;
13309;SDS011;6723;48.256;16.402;2023-03-23T12:10:41;8.90;;;8.00;;
13309;SDS011;6723;48.256;16.402;2023-03-23T12:47:42;9.20;;;6.70;;
13309;SDS011;6723;48.256;16.402;2023-03-23T12:50:12;11.07;;;7.03;;
13309;SDS011;6723;48.256;16.402;2023-03-23T12:52:58;11.23;;;7.63;;
13309;SDS011;6723;48.256;16.402;2023-03-23T12:56:23;9.33;;;6.83;;
13309;SDS011;6723;48.256;16.402;2023-03-23T13:01:52;11.63;;;6.13;;
13309;SDS011;6723;48.256;16.402;2023-03-23T13:04:41;9.03;;;5.80;;
13309;SDS011;6723;48.256;16.402;2023-03-23T13:07:12;12.93;;;5.70;;
13309;SDS011;6723;48.256;16.402;2023-03-23T13:12:20;10.47;;;5.90;;
13309;SDS011;6723;48.256;16.402;2023-03-23T13:17:21;11.20;;;6.43;;
13309;SDS011;6723;48.256;16.402;2023-03-23T13:23:42;12.87;;;6.50;;
13309;SDS011;6723;48.256;16.402;2023-03-23T13:25:46;6.87;;;5.90;;
13309;SDS011;6723;48.256;16.402;2023-03-23T13:28:26;8.67;;;5.83;;
13309;SDS011;6723;48.256;16.402;2023-03-23T13:30:58;9.27;;;6.13;;
13309;SDS011;6723;48.256;16.402;2023-03-23T13:33:33;5.90;;;5.20;;
13309;SDS011;6723;48.256;16.402;2023-03-23T13:36:05;12.60;;;5.73;;
13309;SDS011;6723;48.256;16.402;2023-03-23T13:38:35;11.60;;;5.60;;
13309;SDS011;6723;48.256;16.402;2023-03-23T13:41:10;9.53;;;6.10;;
13309;SDS011;6723;48.256;16.402;2023-03-23T13:43:38;6.83;;;5.57;;
13309;SDS011;6723;48.256;16.402;2023-03-23T13:49:04;9.63;;;5.07;;
13309;SDS011;6723;48.256;16.402;2023-03-23T13:52:22;7.67;;;5.13;;
13309;SDS011;6723;48.256;16.402;2023-03-23T13:54:42;9.77;;;4.77;;
13309;SDS011;6723;48.256;16.402;2023-03-23T13:57:23;13.63;;;5.30;;
13309;SDS011;6723;48.256;16.402;2023-03-23T14:00:24;6.33;;;4.70;;
13309;SDS011;6723;48.256;16.402;2023-03-23T14:02:50;5.83;;;4.13;;
13309;SDS011;6723;48.256;16.402;2023-03-23T14:07:59;5.83;;;3.90;;
13309;SDS011;6723;48.256;16.402;2023-03-23T14:16:24;7.87;;;4.57;;
13309;SDS011;6723;48.256;16.402;2023-03-23T14:18:58;8.73;;;4.33;;
13309;SDS011;6723;48.256;16.402;2023-03-23T14:21:36;5.77;;;4.60;;
13309;SDS011;6723;48.256;16.402;2023-03-23T14:24:08;5.47;;;4.40;;
13309;SDS011;6723;48.256;16.402;2023-03-23T14:26:35;7.63;;;3.93;;
13309;SDS011;6723;48.256;16.402;2023-03-23T14:29:03;4.87;;;4.13;;
13309;SDS011;6723;48.256;16.402;2023-03-23T14:31:30;10.73;;;4.53;;
13309;SDS011;6723;48.256;16.402;2023-03-23T14:34:01;7.90;;;4.10;;
13309;SDS011;6723;48.256;16.402;2023-03-23T14:36:47;5.50;;;3.77;;
13309;SDS011;6723;48.256;16.402;2023-03-23T14:39:29;4.30;;;3.87;;
13309;SDS011;6723;48.256;16.402;2023-03-23T14:42:23;7.00;;;3.73;;
13309;SDS011;6723;48.256;16.402;2023-03-23T14:44:52;9.00;;;4.13;;
13309;SDS011;6723;48.256;16.402;2023-03-23T14:47:23;4.27;;;3.53;;
13309;SDS011;6723;48.256;16.402;2023-03-23T14:49:56;4.87;;;3.67;;
13309;SDS011;6723;48.256;16.402;2023-03-23T14:52:25;6.50;;;3.77;;
13309;SDS011;6723;48.256;16.402;2023-03-23T14:54:52;5.37;;;3.63;;
13309;SDS011;6723;48.256;16.402;2023-03-23T14:57:28;12.23;;;3.80;;
13309;SDS011;6723;48.256;16.402;2023-03-23T14:59:55;6.17;;;4.23;;
13309;SDS011;6723;48.256;16.402;2023-03-23T15:04:51;5.23;;;3.50;;
13309;SDS011;6723;48.256;16.402;2023-03-23T15:07:23;4.87;;;4.10;;
13309;SDS011;6723;48.256;16.402;2023-03-23T15:10:04;7.37;;;3.97;;
13309;SDS011;6723;48.256;16.402;2023-03-23T15:12:32;4.67;;;3.80;;
13309;SDS011;6723;48.256;16.402;2023-03-23T15:15:03;6.53;;;4.43;;
13309;SDS011;6723;48.256;16.402;2023-03-23T15:17:33;8.03;;;4.20;;
13309;SDS011;6723;48.256;16.402;2023-03-23T15:20:08;4.77;;;3.60;;
13309;SDS011;6723;48.256;16.402;2023-03-23T15:22:45;4.93;;;4.10;;
13309;SDS011;6723;48.256;16.402;2023-03-23T15:25:17;5.60;;;3.60;;
13309;SDS011;6723;48.256;16.402;2023-03-23T15:27:49;5.23;;;3.50;;
13309;SDS011;6723;48.256;16.402;2023-03-23T15:32:51;8.23;;;3.60;;
13309;SDS011;6723;48.256;16.402;2023-03-23T15:35:36;6.80;;;3.97;;
13309;SDS011;6723;48.256;16.402;2023-03-23T15:38:12;3.90;;;3.50;;
13309;SDS011;6723;48.256;16.402;2023-03-23T15:40:49;8.37;;;4.33;;
13309;SDS011;6723;48.256;16.402;2023-03-23T15:43:19;4.50;;;3.40;;
13309;SDS011;6723;48.256;16.402;2023-03-23T15:48:53;5.23;;;3.80;;
13309;SDS011;6723;48.256;16.402;2023-03-23T15:51:40;6.83;;;4.03;;
13309;SDS011;6723;48.256;16.402;2023-03-23T15:54:08;6.17;;;3.87;;
13309;SDS011;6723;48.256;16.402;2023-03-23T15:56:37;4.63;;;3.80;;
13309;SDS011;6723;48.256;16.402;2023-03-23T15:59:03;6.97;;;4.33;;
13309;SDS011;6723;48.256;16.402;2023-03-23T16:01:29;4.87;;;4.40;;
13309;SDS011;6723;48.256;16.402;2023-03-23T16:04:06;6.00;;;4.23;;
13309;SDS011;6723;48.256;16.402;2023-03-23T16:06:43;7.43;;;4.70;;
13309;SDS011;6723;48.256;16.402;2023-03-23T16:09:14;8.93;;;4.70;;
13309;SDS011;6723;48.256;16.402;2023-03-23T16:11:41;8.50;;;4.83;;
13309;SDS011;6723;48.256;16.402;2023-03-23T16:14:07;7.37;;;4.57;;
13309;SDS011;6723;48.256;16.402;2023-03-23T16:16:38;7.93;;;4.47;;
13309;SDS011;6723;48.256;16.402;2023-03-23T16:19:04;9.03;;;4.97;;
13309;SDS011;6723;48.256;16.402;2023-03-23T16:21:31;6.30;;;3.90;;
13309;SDS011;6723;48.256;16.402;2023-03-23T16:23:57;6.97;;;4.23;;
13309;SDS011;6723;48.256;16.402;2023-03-23T16:26:23;5.30;;;4.53;;
13309;SDS011;6723;48.256;16.402;2023-03-23T16:28:49;7.63;;;5.13;;
13309;SDS011;6723;48.256;16.402;2023-03-23T16:31:15;12.20;;;5.63;;
13309;SDS011;6723;48.256;16.402;2023-03-23T16:33:40;7.87;;;5.37;;
13309;SDS011;6723;48.256;16.402;2023-03-23T16:36:07;9.33;;;5.70;;
13309;SDS011;6723;48.256;16.402;2023-03-23T16:38:36;10.70;;;5.70;;
13309;SDS011;6723;48.256;16.402;2023-03-23T16:41:06;9.07;;;5.73;;
13309;SDS011;6723;48.256;16.402;2023-03-23T16:43:32;8.67;;;5.47;;
13309;SDS011;6723;48.256;16.402;2023-03-23T16:45:58;7.07;;;5.40;;
13309;SDS011;6723;48.256;16.402;2023-03-23T16:48:26;13.13;;;5.57;;
13309;SDS011;6723;48.256;16.402;2023-03-23T16:50:52;8.23;;;5.30;;
13309;SDS011;6723;48.256;16.402;2023-03-23T16:53:18;7.67;;;5.23;;
13309;SDS011;6723;48.256;16.402;2023-03-23T16:55:46;9.47;;;5.53;;
13309;SDS011;6723;48.256;16.402;2023-03-23T16:58:15;10.10;;;6.50;;
13309;SDS011;6723;48.256;16.402;2023-03-23T17:00:41;9.00;;;5.93;;
13309;SDS011;6723;48.256;16.402;2023-03-23T17:03:09;9.93;;;6.33;;
13309;SDS011;6723;48.256;16.402;2023-03-23T17:05:35;12.03;;;6.50;;
13309;SDS011;6723;48.256;16.402;2023-03-23T17:08:01;10.67;;;6.47;;
13309;SDS011;6723;48.256;16.402;2023-03-23T17:10:28;11.60;;;7.07;;
13309;SDS011;6723;48.256;16.402;2023-03-23T17:12:55;13.67;;;6.77;;
13309;SDS011;6723;48.256;16.402;2023-03-23T17:15:20;10.67;;;6.93;;